Time;durP1;ratioP1;P1;durP2;ratioP2;P2;SDS_P1;SDS_P2;PMS_P1;PMS_P2;Temp;Humidity;BMP_temperature;BMP_pressure;BME280_temperature;BME280_humidity;BME280_pressure;Samples;Min_cycle;Max_cycle;Signal;HPM_P1;HPM_P2
2022/09/06 00:02:00;;;;;;;6.07;2.10;;;16.60;99.90;;;;;;5059499;28;20474;-82
2022/09/06 00:04:27;;;;;;;4.43;1.93;;;16.60;99.90;;;;;;5058959;28;20449;-82
2022/09/06 00:06:54;;;;;;;1.90;1.80;;;16.50;99.90;;;;;;5058586;28;20454;-82
2022/09/06 00:09:22;;;;;;;1.50;1.40;;;16.50;99.90;;;;;;5058887;28;20450;-82
2022/09/06 00:11:48;;;;;;;5.20;2.57;;;16.50;99.90;;;;;;5059321;28;20477;-82
2022/09/06 00:14:15;;;;;;;2.37;1.60;;;16.50;99.90;;;;;;5058852;28;20827;-82
2022/09/06 00:16:42;;;;;;;2.50;1.63;;;16.40;99.90;;;;;;5059194;28;20452;-82
2022/09/06 00:19:09;;;;;;;1.70;1.40;;;16.40;99.90;;;;;;5059178;28;20446;-82
2022/09/06 00:21:35;;;;;;;4.40;2.27;;;16.40;99.90;;;;;;5059713;28;20533;-82
2022/09/06 00:24:03;;;;;;;2.30;2.10;;;16.40;99.90;;;;;;5059906;28;20453;-82
2022/09/06 00:26:31;;;;;;;1.70;1.60;;;16.40;99.90;;;;;;5059156;28;20470;-81
2022/09/06 00:28:57;;;;;;;3.10;1.63;;;16.40;99.90;;;;;;5059923;28;20468;-82
2022/09/06 00:31:26;;;;;;;4.30;2.20;;;16.30;99.90;;;;;;5060091;28;20489;-82
2022/09/06 00:33:53;;;;;;;2.80;2.60;;;16.30;99.90;;;;;;5061881;28;20456;-82
2022/09/06 00:36:21;;;;;;;2.43;1.83;;;16.30;99.90;;;;;;5067507;28;20441;-82
2022/09/06 00:38:47;;;;;;;3.73;1.77;;;15.80;99.90;;;;;;5061266;28;20446;-82
2022/09/06 00:41:16;;;;;;;3.20;1.60;;;16.20;99.90;;;;;;5062204;28;20473;-82
2022/09/06 00:43:44;;;;;;;2.50;1.50;;;16.30;99.90;;;;;;5060726;28;20448;-82
2022/09/06 00:46:15;;;;;;;3.30;2.30;;;16.20;99.90;;;;;;5060496;28;20445;-82
2022/09/06 00:48:43;;;;;;;1.97;1.60;;;16.20;99.90;;;;;;5061425;28;20450;-82
2022/09/06 00:51:12;;;;;;;2.60;1.33;;;16.20;99.90;;;;;;5061387;28;20485;-82
2022/09/06 00:53:39;;;;;;;3.43;1.60;;;16.10;99.90;;;;;;5062653;28;20442;-81
2022/09/06 00:56:06;;;;;;;1.77;1.47;;;16.10;99.90;;;;;;5063037;28;20446;-81
2022/09/06 00:58:33;;;;;;;1.73;1.63;;;16.10;99.90;;;;;;5063730;28;20457;-82
2022/09/06 01:01:01;;;;;;;1.97;1.47;;;16.00;99.90;;;;;;5066017;28;20472;-83
2022/09/06 01:03:28;;;;;;;3.13;1.60;;;16.00;99.90;;;;;;5066882;28;20441;-81
2022/09/06 01:06:06;;;;;;;2.70;1.67;;;16.00;99.90;;;;;;5067066;28;20475;-83
2022/09/06 01:08:43;;;;;;;6.23;1.80;;;16.00;99.90;;;;;;5069109;28;20552;-82
2022/09/06 01:11:31;;;;;;;3.07;1.60;;;15.90;99.90;;;;;;5069718;28;20489;-81
2022/09/06 01:14:10;;;;;;;3.20;1.57;;;15.90;99.90;;;;;;5073528;28;20471;-83
2022/09/06 01:16:43;;;;;;;4.97;1.53;;;15.90;99.90;;;;;;5072154;28;20384;-81
2022/09/06 01:19:46;;;;;;;2.83;1.60;;;15.80;99.90;;;;;;5073360;28;20432;-81
2022/09/06 01:22:31;;;;;;;1.50;1.40;;;15.80;99.90;;;;;;5071801;28;20483;-84
2022/09/06 01:25:13;;;;;;;1.80;1.53;;;15.80;99.90;;;;;;5073052;28;20452;-84
2022/09/06 01:28:02;;;;;;;2.60;1.03;;;15.70;99.90;;;;;;5070739;28;20418;-82
2022/09/06 01:30:32;;;;;;;1.57;1.40;;;15.70;99.90;;;;;;5073030;28;20493;-81
2022/09/06 01:33:07;;;;;;;1.50;1.40;;;15.70;99.90;;;;;;5072400;28;20438;-81
2022/09/06 01:35:38;;;;;;;6.13;1.90;;;15.70;99.90;;;;;;5073045;28;20438;-85
2022/09/06 01:38:07;;;;;;;1.70;1.40;;;15.70;99.90;;;;;;5072094;28;20405;-82
2022/09/06 01:40:35;;;;;;;2.40;1.93;;;15.70;99.90;;;;;;5071182;28;20540;-82
2022/09/06 01:43:04;;;;;;;2.87;1.67;;;15.50;1.00;;;;;;5067676;28;20844;-81
2022/09/06 01:45:41;;;;;;;3.07;1.80;;;15.70;99.90;;;;;;5067273;28;20460;-82
2022/09/06 01:48:16;;;;;;;3.17;1.47;;;15.70;99.90;;;;;;5067779;28;20454;-82
2022/09/06 01:50:58;;;;;;;4.20;1.30;;;15.60;99.90;;;;;;5069038;28;20489;-83
2022/09/06 01:53:46;;;;;;;3.63;1.60;;;15.70;99.90;;;;;;5072099;28;20409;-81
2022/09/06 01:56:26;;;;;;;1.67;1.57;;;15.70;99.90;;;;;;5072517;28;20430;-82
2022/09/06 02:02:03;;;;;;;2.73;1.80;;;15.40;99.90;;;;;;5108532;28;20518;-81
2022/09/06 02:04:36;;;;;;;4.17;1.30;;;15.60;99.90;;;;;;5101909;28;20428;-82
2022/09/06 02:07:10;;;;;;;2.00;1.60;;;15.60;99.90;;;;;;5105656;28;20435;-81
2022/09/06 02:09:40;;;;;;;2.37;2.03;;;15.60;99.90;;;;;;5105443;28;20436;-82
2022/09/06 02:12:12;;;;;;;1.30;1.20;;;15.60;99.90;;;;;;5103781;28;20479;-81
2022/09/06 02:14:44;;;;;;;2.20;1.20;;;15.50;99.90;;;;;;5112236;22;20455;-70
2022/09/06 02:17:15;;;;;;;6.27;1.83;;;15.60;99.90;;;;;;5031248;28;20431;-68
2022/09/06 02:19:47;;;;;;;2.83;1.60;;;15.50;99.90;;;;;;5030918;28;20426;-69
2022/09/06 02:22:17;;;;;;;1.53;1.23;;;15.50;99.90;;;;;;5030863;28;20414;-68
2022/09/06 02:24:46;;;;;;;2.33;1.50;;;15.50;99.90;;;;;;5030784;28;20470;-68
2022/09/06 02:27:14;;;;;;;1.70;1.60;;;15.50;99.90;;;;;;5030674;28;20439;-70
2022/09/06 02:29:41;;;;;;;2.17;1.53;;;15.40;99.90;;;;;;5030896;28;20446;-69
2022/09/06 02:32:14;;;;;;;2.37;1.40;;;15.40;99.90;;;;;;5030865;28;20442;-70
2022/09/06 02:34:42;;;;;;;4.00;1.97;;;15.40;99.90;;;;;;5030720;28;20475;-69
2022/09/06 02:37:11;;;;;;;1.97;1.03;;;15.40;99.90;;;;;;5030359;28;20486;-69
2022/09/06 02:39:38;;;;;;;2.00;1.73;;;15.40;99.90;;;;;;5030877;28;20447;-69
2022/09/06 02:42:06;;;;;;;3.47;2.00;;;15.40;99.90;;;;;;5030283;28;20443;-69
2022/09/06 02:44:33;;;;;;;8.80;1.57;;;15.20;1.00;;;;;;5030087;28;20454;-69
2022/09/06 02:47:02;;;;;;;9.33;1.70;;;15.30;99.90;;;;;;5030122;28;20450;-69
2022/09/06 02:49:30;;;;;;;3.10;1.80;;;15.30;99.90;;;;;;5029755;28;20530;-69
2022/09/06 02:51:57;;;;;;;4.03;1.80;;;15.20;99.90;;;;;;5029530;28;20452;-69
2022/09/06 02:54:24;;;;;;;1.57;1.47;;;15.30;1.00;;;;;;5029815;28;20422;-69
2022/09/06 02:56:51;;;;;;;2.03;1.83;;;15.20;99.90;;;;;;5029895;28;20428;-70
2022/09/06 02:59:17;;;;;;;1.50;1.40;;;15.30;99.90;;;;;;5029952;28;20450;-69
2022/09/06 03:01:44;;;;;;;3.20;1.77;;;15.30;99.90;;;;;;5029879;28;20486;-69
2022/09/06 03:04:11;;;;;;;3.73;1.40;;;15.30;99.90;;;;;;5029879;28;20425;-70
2022/09/06 03:06:39;;;;;;;3.13;1.83;;;15.20;99.90;;;;;;5029692;28;20516;-69
2022/09/06 03:09:05;;;;;;;2.53;2.33;;;15.20;99.90;;;;;;5029655;28;20449;-69
2022/09/06 03:11:32;;;;;;;3.23;1.87;;;15.20;99.90;;;;;;5026399;28;20455;-70
2022/09/06 03:13:59;;;;;;;2.20;2.00;;;15.10;99.90;;;;;;5016540;28;20480;-69
2022/09/06 03:16:25;;;;;;;3.13;1.40;;;15.10;99.90;;;;;;5015935;28;20478;-69
2022/09/06 03:18:52;;;;;;;1.47;1.37;;;15.10;99.90;;;;;;5016333;28;20843;-69
2022/09/06 03:21:19;;;;;;;1.67;1.57;;;15.00;99.90;;;;;;5015918;28;20533;-69
2022/09/06 03:23:48;;;;;;;1.83;1.70;;;15.10;99.90;;;;;;5016264;28;20426;-70
2022/09/06 03:26:15;;;;;;;4.03;1.67;;;15.00;99.90;;;;;;5016155;28;20446;-70
2022/09/06 03:28:42;;;;;;;2.83;1.63;;;15.00;99.90;;;;;;5015987;28;20501;-70
2022/09/06 03:31:09;;;;;;;1.73;1.60;;;15.00;99.90;;;;;;5015857;28;20892;-69
2022/09/06 03:33:35;;;;;;;1.83;1.50;;;15.00;99.90;;;;;;5016111;28;20451;-70
2022/09/06 03:36:03;;;;;;;4.40;1.97;;;15.00;99.90;;;;;;5016056;28;20467;-70
2022/09/06 03:38:29;;;;;;;2.83;1.63;;;14.90;99.90;;;;;;5016079;28;20418;-69
2022/09/06 03:40:57;;;;;;;1.53;1.43;;;14.90;99.90;;;;;;5016168;28;20504;-70
2022/09/06 03:43:25;;;;;;;3.37;1.90;;;14.90;99.90;;;;;;5015883;28;20451;-70
2022/09/06 03:45:54;;;;;;;4.07;1.90;;;14.90;99.90;;;;;;5015977;28;20459;-69
2022/09/06 03:48:22;;;;;;;2.93;2.10;;;14.90;99.90;;;;;;5015992;28;20444;-70
2022/09/06 03:50:50;;;;;;;3.87;1.97;;;14.80;1.00;;;;;;5015935;28;20447;-69
2022/09/06 03:53:18;;;;;;;2.13;1.80;;;14.80;1.00;;;;;;5015655;28;20943;-69
2022/09/06 03:55:45;;;;;;;1.97;1.70;;;14.80;1.00;;;;;;5015681;28;20880;-69
2022/09/06 03:58:13;;;;;;;2.10;1.90;;;14.80;1.00;;;;;;5015529;28;20456;-69
2022/09/06 04:00:40;;;;;;;1.77;1.67;;;14.80;1.00;;;;;;5015606;28;20482;-70
2022/09/06 04:03:07;;;;;;;3.40;1.97;;;14.80;1.00;;;;;;5015927;28;20451;-70
2022/09/06 04:05:34;;;;;;;1.70;1.60;;;14.80;1.00;;;;;;5015589;28;20467;-69
2022/09/06 04:08:01;;;;;;;1.80;1.70;;;14.80;1.00;;;;;;5015239;28;20422;-70
2022/09/06 04:10:27;;;;;;;1.97;1.77;;;14.70;1.00;;;;;;5015440;28;20450;-70
2022/09/06 04:12:54;;;;;;;3.00;2.13;;;14.70;1.00;;;;;;5015323;28;20439;-69
2022/09/06 04:15:22;;;;;;;5.07;1.83;;;14.70;1.00;;;;;;5014892;28;20488;-69
2022/09/06 04:17:49;;;;;;;2.07;1.97;;;14.70;1.00;;;;;;5015268;28;20455;-69
2022/09/06 04:20:16;;;;;;;2.97;1.87;;;14.70;1.00;;;;;;5014777;28;20455;-69
2022/09/06 04:22:43;;;;;;;6.40;2.20;;;14.70;1.00;;;;;;5014855;28;20454;-69
2022/09/06 04:25:11;;;;;;;2.70;2.20;;;14.60;1.00;;;;;;5014344;28;20533;-69
2022/09/06 04:27:38;;;;;;;3.00;1.77;;;14.70;1.00;;;;;;5014855;28;20455;-69
2022/09/06 04:30:06;;;;;;;4.97;2.90;;;14.60;1.00;;;;;;5014393;28;20492;-70
2022/09/06 04:32:34;;;;;;;2.83;2.10;;;14.60;1.00;;;;;;5015006;28;20200;-70
2022/09/06 04:35:00;;;;;;;2.03;1.80;;;14.60;1.00;;;;;;5014808;28;20474;-69
2022/09/06 04:37:27;;;;;;;2.50;1.67;;;14.60;1.00;;;;;;5014577;28;20443;-69
2022/09/06 04:39:54;;;;;;;3.83;1.90;;;14.60;1.00;;;;;;5014888;28;20462;-70
2022/09/06 04:42:21;;;;;;;1.83;1.40;;;14.60;1.00;;;;;;5014705;28;20487;-69
2022/09/06 04:44:47;;;;;;;2.07;1.80;;;14.60;1.00;;;;;;5014646;28;20471;-69
2022/09/06 04:47:17;;;;;;;1.40;1.30;;;14.60;1.00;;;;;;5014719;28;20451;-70
2022/09/06 04:49:47;;;;;;;3.10;2.07;;;14.50;1.00;;;;;;5014534;28;20491;-70
2022/09/06 04:52:13;;;;;;;2.37;2.17;;;14.60;1.00;;;;;;5014532;28;20805;-69
2022/09/06 04:54:40;;;;;;;7.70;2.23;;;14.60;1.00;;;;;;5014102;28;20996;-70
2022/09/06 04:57:07;;;;;;;3.00;2.03;;;14.60;1.00;;;;;;5014321;28;20934;-69
2022/09/06 04:59:33;;;;;;;2.00;1.90;;;14.50;1.00;;;;;;5014373;28;20447;-69
2022/09/06 05:02:00;;;;;;;2.30;2.10;;;14.50;1.00;;;;;;5014273;28;20989;-69
2022/09/06 05:04:27;;;;;;;4.20;3.13;;;14.40;1.00;;;;;;5014076;28;20970;-69
2022/09/06 05:07:01;;;;;;;4.57;2.83;;;14.50;1.00;;;;;;5014296;28;20505;-69
2022/09/06 05:09:28;;;;;;;4.40;1.53;;;14.50;1.00;;;;;;5014346;28;20427;-69
2022/09/06 05:11:55;;;;;;;4.73;2.87;;;14.50;1.00;;;;;;5014412;28;20448;-69
2022/09/06 05:14:22;;;;;;;3.10;2.00;;;14.70;1.00;;;;;;5014064;28;20482;-69
2022/09/06 05:16:48;;;;;;;4.37;2.23;;;14.60;1.00;;;;;;5013981;28;20460;-69
2022/09/06 05:19:15;;;;;;;3.10;1.87;;;14.60;1.00;;;;;;5014188;28;20505;-69
2022/09/06 05:21:42;;;;;;;2.83;2.20;;;14.60;1.00;;;;;;5013751;28;21009;-69
2022/09/06 05:24:10;;;;;;;4.83;2.00;;;14.60;1.00;;;;;;5014142;28;20509;-69
2022/09/06 05:26:37;;;;;;;9.73;2.73;;;14.60;1.00;;;;;;5013809;28;20475;-69
2022/09/06 05:29:04;;;;;;;4.63;2.67;;;14.60;1.00;;;;;;5014308;28;20459;-69
2022/09/06 05:31:32;;;;;;;6.90;3.03;;;14.60;1.00;;;;;;5013875;28;20447;-69
2022/09/06 05:33:59;;;;;;;12.90;2.83;;;15.10;1.00;;;;;;5014205;28;20454;-69
2022/09/06 05:36:27;;;;;;;30.13;4.80;;;14.70;1.00;;;;;;5013744;28;21024;-69
2022/09/06 05:38:55;;;;;;;8.43;2.30;;;14.80;1.00;;;;;;5013936;28;20792;-69
2022/09/06 05:41:23;;;;;;;11.20;2.60;;;14.80;1.00;;;;;;5013732;28;20479;-70
2022/09/06 05:43:50;;;;;;;26.77;2.90;;;14.70;1.00;;;;;;5013628;28;20451;-69
2022/09/06 05:46:17;;;;;;;3.93;2.63;;;14.80;1.00;;;;;;5013539;28;20471;-69
2022/09/06 05:48:43;;;;;;;4.87;2.40;;;14.80;1.00;;;;;;5013383;28;20856;-69
2022/09/06 05:51:12;;;;;;;2.33;1.47;;;14.90;1.00;;;;;;5013394;28;20448;-69
2022/09/06 05:53:40;;;;;;;6.37;2.57;;;15.00;1.00;;;;;;5012906;28;20451;-69
2022/09/06 05:56:08;;;;;;;6.73;2.53;;;15.00;1.00;;;;;;5013178;28;20467;-69
2022/09/06 05:58:37;;;;;;;2.13;1.90;;;14.90;1.00;;;;;;5013082;28;20451;-69
2022/09/06 06:01:06;;;;;;;12.50;2.80;;;14.90;1.00;;;;;;5013188;28;20479;-70
2022/09/06 06:03:32;;;;;;;4.50;3.27;;;14.90;1.00;;;;;;5013017;28;20954;-69
2022/09/06 06:05:59;;;;;;;4.13;3.50;;;14.90;1.00;;;;;;5013518;28;20899;-69
2022/09/06 06:08:26;;;;;;;6.27;1.90;;;15.00;1.00;;;;;;5013245;28;20426;-69
2022/09/06 06:10:52;;;;;;;12.47;2.33;;;15.00;1.00;;;;;;5013082;28;20451;-70
2022/09/06 06:13:19;;;;;;;12.23;3.20;;;15.00;1.00;;;;;;5013216;28;20448;-68
2022/09/06 06:15:47;;;;;;;9.23;2.33;;;15.00;1.00;;;;;;5013200;28;20482;-70
2022/09/06 06:18:13;;;;;;;5.67;2.00;;;15.00;1.00;;;;;;5013745;28;20422;-70
2022/09/06 06:20:40;;;;;;;11.87;3.17;;;15.00;1.00;;;;;;5013386;28;20455;-70
2022/09/06 06:23:07;;;;;;;15.00;3.17;;;15.10;1.00;;;;;;5013651;28;20545;-70
2022/09/06 06:25:34;;;;;;;11.77;2.40;;;15.00;1.00;;;;;;5013229;28;20490;-70
2022/09/06 06:28:00;;;;;;;8.83;3.07;;;15.10;1.00;;;;;;5012743;28;20982;-70
2022/09/06 06:30:27;;;;;;;11.30;4.03;;;15.00;1.00;;;;;;5013371;28;20447;-69
2022/09/06 06:32:57;;;;;;;10.80;2.23;;;15.20;1.00;;;;;;5013450;28;20418;-70
2022/09/06 06:35:24;;;;;;;2.80;2.60;;;15.20;1.00;;;;;;5013793;28;20511;-70
2022/09/06 06:37:50;;;;;;;3.10;2.67;;;15.40;1.00;;;;;;5013242;28;20459;-70
2022/09/06 06:40:17;;;;;;;4.07;2.37;;;15.40;1.00;;;;;;5013218;28;20526;-70
2022/09/06 06:42:44;;;;;;;6.60;2.43;;;15.30;1.00;;;;;;5013259;28;20465;-70
2022/09/06 06:45:11;;;;;;;3.47;2.47;;;15.30;1.00;;;;;;5012773;28;20518;-71
2022/09/06 06:47:37;;;;;;;5.43;1.90;;;15.40;1.00;;;;;;5014968;28;20429;-70
2022/09/06 06:50:07;;;;;;;4.43;1.90;;;15.40;1.00;;;;;;5016653;28;20953;-70
2022/09/06 06:52:33;;;;;;;5.00;2.50;;;15.40;1.00;;;;;;5016729;28;20505;-71
2022/09/06 06:55:00;;;;;;;8.00;3.00;;;15.50;1.00;;;;;;5016328;28;20497;-67
2022/09/06 06:57:27;;;;;;;3.53;1.90;;;15.70;1.00;;;;;;5016793;28;20422;-71
2022/09/06 06:59:53;;;;;;;4.03;1.90;;;15.70;1.00;;;;;;5016361;28;20455;-70
2022/09/06 07:02:20;;;;;;;8.67;2.20;;;15.90;1.00;;;;;;5016445;28;20903;-68
2022/09/06 07:04:47;;;;;;;4.93;2.63;;;15.90;1.00;;;;;;5016402;28;20479;-68
2022/09/06 07:07:15;;;;;;;2.47;1.90;;;15.90;1.00;;;;;;5016339;28;20445;-69
2022/09/06 07:09:41;;;;;;;2.60;1.90;;;15.90;1.00;;;;;;5016255;28;20872;-70
2022/09/06 07:12:08;;;;;;;3.00;2.20;;;16.10;1.00;;;;;;5016225;28;20447;-69
2022/09/06 07:14:35;;;;;;;4.40;2.00;;;16.40;1.00;;;;;;5015946;28;20447;-69
2022/09/06 07:17:02;;;;;;;4.73;2.30;;;16.20;1.00;;;;;;5016888;28;20902;-69
2022/09/06 07:19:29;;;;;;;17.57;4.10;;;16.30;1.00;;;;;;5018497;28;20459;-70
2022/09/06 07:21:57;;;;;;;10.03;2.97;;;16.20;1.00;;;;;;5018017;28;20479;-70
2022/09/06 07:24:25;;;;;;;7.03;2.33;;;16.40;1.00;;;;;;5017116;28;20455;-69
2022/09/06 07:26:52;;;;;;;2.03;1.83;;;16.30;1.00;;;;;;5016503;28;20455;-69
2022/09/06 07:29:19;;;;;;;3.43;1.73;;;16.30;1.00;;;;;;5016213;28;20546;-70
2022/09/06 07:31:45;;;;;;;3.70;2.07;;;16.40;1.00;;;;;;5017883;28;20451;-70
2022/09/06 07:34:13;;;;;;;3.97;2.40;;;16.40;1.00;;;;;;5015962;28;20458;-70
2022/09/06 07:36:40;;;;;;;5.07;2.47;;;16.60;1.00;;;;;;5015868;28;20503;-69
2022/09/06 07:39:09;;;;;;;4.63;2.70;;;16.50;1.00;;;;;;5016109;28;20803;-70
2022/09/06 07:41:37;;;;;;;2.50;2.30;;;16.60;1.00;;;;;;5015544;28;20483;-69
2022/09/06 07:44:04;;;;;;;12.13;2.90;;;16.60;1.00;;;;;;5016168;28;20451;-70
2022/09/06 07:46:30;;;;;;;2.77;2.57;;;16.70;1.00;;;;;;5016137;28;20472;-70
2022/09/06 07:48:57;;;;;;;4.93;2.47;;;16.70;1.00;;;;;;5015703;28;20981;-70
2022/09/06 07:51:24;;;;;;;1.93;1.73;;;16.80;1.00;;;;;;5015720;28;20451;-70
2022/09/06 07:53:54;;;;;;;2.83;2.10;;;17.10;1.00;;;;;;5015976;28;20466;-70
2022/09/06 07:56:22;;;;;;;4.23;3.50;;;16.90;1.00;;;;;;5015607;28;20482;-71
2022/09/06 07:58:51;;;;;;;4.13;2.60;;;16.80;1.00;;;;;;5015307;28;20454;-71
2022/09/06 08:01:29;;;;;;;6.73;3.17;;;16.80;1.00;;;;;;5015053;28;20456;-70
2022/09/06 08:03:57;;;;;;;6.73;2.93;;;16.80;1.00;;;;;;5015397;28;20531;-70
2022/09/06 08:06:24;;;;;;;15.83;4.73;;;16.90;1.00;;;;;;5015293;28;20530;-70
2022/09/06 08:08:51;;;;;;;7.40;3.33;;;17.00;1.00;;;;;;5014773;28;20954;-70
2022/09/06 08:11:18;;;;;;;3.10;2.60;;;17.00;1.00;;;;;;5015017;28;20455;-70
2022/09/06 08:13:50;;;;;;;11.80;4.10;;;17.00;1.00;;;;;;5015097;28;20456;-71
2022/09/06 08:16:17;;;;;;;8.30;4.30;;;17.10;1.00;;;;;;5058187;22;20494;-81
2022/09/06 08:18:44;;;;;;;16.67;5.40;;;17.20;1.00;;;;;;5049015;28;20462;-82
2022/09/06 08:21:12;;;;;;;28.43;5.23;;;17.20;1.00;;;;;;5048380;28;20420;-80
2022/09/06 08:23:42;;;;;;;6.57;4.00;;;17.20;1.00;;;;;;5049317;28;20513;-81
2022/09/06 08:26:09;;;;;;;6.40;3.33;;;17.30;1.00;;;;;;5047115;28;20536;-80
2022/09/06 08:28:36;;;;;;;6.70;3.07;;;17.40;1.00;;;;;;5049384;28;20453;-80
2022/09/06 08:31:16;;;;;;;6.00;3.40;;;17.50;1.00;;;;;;5043609;28;20451;-80
2022/09/06 08:33:43;;;;;;;3.93;3.20;;;17.50;1.00;;;;;;5046069;28;20426;-81
2022/09/06 08:36:11;;;;;;;5.67;3.50;;;17.50;1.00;;;;;;5046318;28;20478;-80
2022/09/06 08:38:38;;;;;;;14.10;6.63;;;17.60;1.00;;;;;;5042531;28;20439;-80
2022/09/06 08:41:10;;;;;;;12.17;3.70;;;17.70;1.00;;;;;;5043888;28;20446;-81
2022/09/06 08:43:38;;;;;;;3.07;2.50;;;17.70;1.00;;;;;;5044224;28;20540;-80
2022/09/06 08:46:09;;;;;;;24.30;10.50;;;17.80;1.00;;;;;;5043523;28;20477;-81
2022/09/06 08:48:39;;;;;;;10.53;3.23;;;17.80;1.00;;;;;;5048770;28;20538;-81
2022/09/06 08:51:29;;;;;;;3.13;2.87;;;17.90;1.00;;;;;;5048235;28;20798;-81
2022/09/06 08:54:03;;;;;;;3.47;3.17;;;17.90;1.00;;;;;;5050357;28;20495;-81
2022/09/06 08:56:37;;;;;;;3.93;3.57;;;18.20;1.00;;;;;;5049497;28;20550;-81
2022/09/06 08:59:06;;;;;;;3.37;3.10;;;18.20;1.00;;;;;;5049910;28;20498;-82
2022/09/06 09:01:46;;;;;;;3.30;2.83;;;18.30;1.00;;;;;;5050666;28;20446;-81
2022/09/06 09:04:20;;;;;;;3.73;2.97;;;18.40;1.00;;;;;;5052403;28;20423;-81
2022/09/06 09:06:55;;;;;;;5.80;3.73;;;18.50;1.00;;;;;;5050297;28;20462;-81
2022/09/06 09:09:21;;;;;;;9.93;3.63;;;18.50;1.00;;;;;;5048077;28;20450;-80
2022/09/06 09:11:51;;;;;;;10.03;5.50;;;18.40;1.00;;;;;;5050028;28;20461;-82
2022/09/06 09:14:24;;;;;;;4.80;3.83;;;18.50;1.00;;;;;;5050289;28;20569;-80
2022/09/06 09:16:54;;;;;;;4.10;2.93;;;18.60;1.00;;;;;;5049733;28;20856;-83
2022/09/06 09:19:21;;;;;;;4.67;3.90;;;;;;;;;;5051324;28;20489;-80
2022/09/06 09:21:48;;;;;;;13.00;4.17;;;18.80;1.00;;;;;;5049050;28;20451;-80
2022/09/06 09:24:15;;;;;;;3.50;2.77;;;18.80;1.00;;;;;;5049594;28;20541;-82
2022/09/06 09:26:50;;;;;;;6.40;3.03;;;19.00;1.00;;;;;;5048575;28;20458;-83
2022/09/06 09:29:16;;;;;;;6.03;3.60;;;18.90;1.00;;;;;;5047404;28;20428;-80
2022/09/06 09:31:52;;;;;;;9.00;4.47;;;18.90;1.00;;;;;;5046479;28;20449;-81
2022/09/06 09:34:32;;;;;;;4.20;3.33;;;18.80;1.00;;;;;;5043045;28;20430;-81
2022/09/06 09:37:21;;;;;;;6.10;3.50;;;18.90;1.00;;;;;;5044186;28;20466;-79
2022/09/06 09:39:49;;;;;;;4.40;3.60;;;19.20;1.00;;;;;;5048566;28;20506;-82
2022/09/06 09:42:26;;;;;;;4.80;3.20;;;19.20;1.00;;;;;;5048112;28;20536;-81
2022/09/06 09:44:53;;;;;;;5.07;3.23;;;19.60;1.00;;;;;;5048824;28;20434;-81
2022/09/06 09:47:27;;;;;;;6.93;4.17;;;19.40;1.00;;;;;;5046879;28;21067;-81
2022/09/06 09:49:55;;;;;;;5.30;3.50;;;19.40;1.00;;;;;;5053257;28;20502;-82
2022/09/06 09:52:26;;;;;;;4.50;3.20;;;19.30;1.00;;;;;;5048260;28;20443;-82
2022/09/06 09:54:56;;;;;;;7.10;6.50;;;19.50;1.00;;;;;;5046877;28;20439;-80
2022/09/06 09:57:23;;;;;;;6.30;3.83;;;19.50;1.00;;;;;;5045356;28;20451;-81
2022/09/06 09:59:52;;;;;;;5.27;3.60;;;19.50;1.00;;;;;;5046979;28;20438;-79
2022/09/06 10:02:27;;;;;;;6.70;4.73;;;19.50;1.00;;;;;;5047157;28;20565;-82
2022/09/06 10:05:01;;;;;;;6.00;4.00;;;19.40;1.00;;;;;;5047129;28;20430;-80
2022/09/06 10:07:28;;;;;;;5.03;4.00;;;19.70;1.00;;;;;;5046238;28;20422;-79
2022/09/06 10:10:00;;;;;;;4.30;3.93;;;19.90;1.00;;;;;;5043015;28;20487;-80
2022/09/06 10:12:31;;;;;;;5.30;4.40;;;20.00;1.00;;;;;;5039969;28;20434;-81
2022/09/06 10:14:59;;;;;;;4.50;3.97;;;20.50;1.00;;;;;;5037854;28;20455;-81
2022/09/06 10:17:31;;;;;;;7.93;4.50;;;20.10;1.00;;;;;;5037030;28;20439;-81
2022/09/06 10:20:03;;;;;;;3.90;3.57;;;20.10;1.00;;;;;;5037055;28;20451;-81
2022/09/06 10:22:31;;;;;;;8.30;4.80;;;20.00;1.00;;;;;;5038343;28;20553;-81
2022/09/06 10:25:24;;;;;;;9.17;4.60;;;20.50;1.00;;;;;;5040324;28;20453;-82
2022/09/06 10:28:03;;;;;;;13.83;4.30;;;20.30;1.00;;;;;;5044144;28;20435;-81
2022/09/06 10:30:35;;;;;;;7.00;4.60;;;20.30;1.00;;;;;;5043233;28;20434;-81
2022/09/06 10:33:07;;;;;;;19.33;5.03;;;20.40;1.00;;;;;;5040612;28;20480;-81
2022/09/06 10:35:38;;;;;;;8.67;4.60;;;20.30;1.00;;;;;;5039706;28;20476;-81
2022/09/06 10:38:31;;;;;;;5.47;4.87;;;20.00;1.00;;;;;;5039357;28;20446;-81
2022/09/06 10:41:15;;;;;;;4.67;4.20;;;20.00;1.00;;;;;;5038574;28;20434;-80
2022/09/06 10:43:53;;;;;;;6.50;4.77;;;20.00;1.00;;;;;;5038705;28;20466;-80
2022/09/06 10:46:25;;;;;;;6.07;4.80;;;20.10;1.00;;;;;;5038266;28;20882;-82
2022/09/06 10:48:53;;;;;;;7.10;4.40;;;20.10;1.00;;;;;;5038600;28;20438;-80
2022/09/06 10:51:32;;;;;;;8.13;4.80;;;20.10;1.00;;;;;;5038485;28;20865;-82
2022/09/06 10:54:06;;;;;;;5.90;4.63;;;20.10;1.00;;;;;;5039123;28;20418;-81
2022/09/06 10:56:38;;;;;;;5.30;4.27;;;20.20;1.00;;;;;;5038572;28;20604;-83
2022/09/06 10:59:15;;;;;;;6.97;5.17;;;20.20;99.90;;;;;;5038562;28;20435;-81
2022/09/06 11:01:50;;;;;;;6.63;4.90;;;20.10;99.90;;;;;;5039052;28;20492;-82
2022/09/06 11:04:23;;;;;;;5.33;4.90;;;20.20;1.00;;;;;;5039242;28;20465;-81
2022/09/06 11:06:55;;;;;;;8.03;4.30;;;20.30;1.00;;;;;;5038758;28;20473;-81
2022/09/06 11:09:29;;;;;;;4.53;4.10;;;20.40;1.00;;;;;;5038878;28;20438;-82
2022/09/06 11:12:03;;;;;;;4.97;4.20;;;20.40;99.90;;;;;;5038715;28;20489;-81
2022/09/06 11:14:30;;;;;;;5.73;4.93;;;20.50;99.90;;;;;;5038413;28;20832;-81
2022/09/06 11:17:03;;;;;;;3.90;3.60;;;20.60;99.90;;;;;;5037826;28;20570;-81
2022/09/06 11:19:38;;;;;;;3.93;3.50;;;20.70;1.00;;;;;;5037244;28;20470;-81
2022/09/06 11:22:35;;;;;;;7.03;5.00;;;20.80;99.90;;;;;;5037001;28;20797;-81
2022/09/06 11:25:35;;;;;;;4.43;4.03;;;20.70;1.00;;;;;;5037659;28;20890;-81
2022/09/06 11:28:07;;;;;;;7.87;5.87;;;21.10;99.90;;;;;;5038312;28;20537;-82
2022/09/06 11:30:34;;;;;;;6.03;5.20;;;21.10;99.90;;;;;;5041119;28;20422;-82
2022/09/06 11:33:13;;;;;;;7.03;4.67;;;21.10;1.00;;;;;;5038371;28;20446;-81
2022/09/06 11:35:41;;;;;;;5.73;4.77;;;21.10;99.90;;;;;;5037786;28;20475;-82
2022/09/06 11:38:22;;;;;;;8.77;5.90;;;21.00;1.00;;;;;;5037725;28;20450;-81
2022/09/06 11:40:54;;;;;;;5.20;4.70;;;21.00;99.90;;;;;;5037642;28;20914;-81
2022/09/06 11:43:45;;;;;;;5.80;4.87;;;20.90;99.90;;;;;;5037695;28;20467;-82
2022/09/06 11:46:50;;;;;;;5.30;4.90;;;20.80;99.90;;;;;;5037474;28;20463;-81
2022/09/06 11:49:32;;;;;;;6.17;4.70;;;20.70;99.90;;;;;;5036942;28;20442;-81
2022/09/06 11:51:59;;;;;;;5.43;5.03;;;20.60;99.90;;;;;;5037597;28;20906;-82
2022/09/06 11:54:42;;;;;;;6.20;5.63;;;20.60;99.90;;;;;;5037166;28;20565;-82
2022/09/06 11:57:14;;;;;;;7.77;4.70;;;20.70;99.90;;;;;;5038581;28;20486;-81
2022/09/06 11:59:52;;;;;;;4.87;4.37;;;20.70;99.90;;;;;;5038189;28;20470;-82
2022/09/06 12:02:35;;;;;;;5.53;4.40;;;20.70;99.90;;;;;;5037995;28;20434;-82
2022/09/06 12:05:27;;;;;;;7.47;5.17;;;20.90;1.00;;;;;;5038150;28;20431;-81
2022/09/06 12:08:26;;;;;;;5.70;5.20;;;20.70;99.90;;;;;;5038817;28;20434;-81
2022/09/06 12:11:24;;;;;;;5.00;4.53;;;20.70;99.90;;;;;;5005752;28;20455;-81
2022/09/06 12:13:58;;;;;;;6.57;5.03;;;20.70;99.90;;;;;;5024278;28;20451;-81
2022/09/06 12:17:05;;;;;;;7.23;6.60;;;20.80;99.90;;;;;;5040660;28;20484;-81
2022/09/06 12:19:41;;;;;;;5.67;4.53;;;20.80;1.00;;;;;;5037026;28;20987;-81
2022/09/06 12:22:41;;;;;;;6.47;5.10;;;20.90;99.90;;;;;;5037093;28;20430;-82
2022/09/06 12:25:17;;;;;;;5.13;4.63;;;20.60;1.00;;;;;;5041734;28;20448;-81
2022/09/06 12:27:52;;;;;;;5.67;5.10;;;20.90;99.90;;;;;;5050934;28;20449;-81
2022/09/06 12:30:33;;;;;;;5.73;4.23;;;21.30;1.00;;;;;;5050031;28;20426;-83
2022/09/06 12:33:02;;;;;;;10.40;5.10;;;21.00;99.90;;;;;;5049299;28;20433;-82
2022/09/06 12:35:33;;;;;;;6.00;5.50;;;21.00;99.90;;;;;;5047350;28;20465;-81
2022/09/06 12:38:07;;;;;;;5.97;4.70;;;21.10;99.90;;;;;;5048794;28;20457;-81
2022/09/06 12:40:39;;;;;;;5.67;4.97;;;21.20;99.90;;;;;;5047747;28;20485;-79
2022/09/06 12:43:10;;;;;;;6.30;5.23;;;21.20;99.90;;;;;;5046809;28;20478;-81
2022/09/06 12:45:42;;;;;;;5.30;4.67;;;21.30;1.00;;;;;;5043714;28;20467;-81
2022/09/06 12:48:11;;;;;;;6.47;4.63;;;21.40;1.00;;;;;;5042439;28;20434;-82
2022/09/06 12:50:40;;;;;;;6.60;5.30;;;21.40;99.90;;;;;;5041511;28;20453;-81
2022/09/06 12:53:20;;;;;;;5.07;4.57;;;21.40;99.90;;;;;;5042211;28;20466;-79
2022/09/06 12:55:46;;;;;;;5.90;5.23;;;21.60;1.00;;;;;;5046499;28;20467;-81
2022/09/06 12:58:14;;;;;;;7.00;4.60;;;21.60;99.90;;;;;;5046894;28;20469;-81
2022/09/06 13:00:44;;;;;;;6.73;4.87;;;21.50;99.90;;;;;;5048537;28;20462;-81
2022/09/06 13:03:25;;;;;;;6.53;5.30;;;21.70;99.90;;;;;;5050467;28;20474;-83
2022/09/06 13:05:55;;;;;;;10.70;5.13;;;21.80;99.90;;;;;;5050286;28;20477;-82
2022/09/06 13:08:30;;;;;;;6.97;5.37;;;21.90;99.90;;;;;;5048574;28;20449;-85
2022/09/06 13:10:57;;;;;;;6.10;4.60;;;22.00;99.90;;;;;;5051522;28;20433;-86
2022/09/06 13:13:26;;;;;;;5.47;5.07;;;22.10;1.00;;;;;;5049250;28;20579;-81
2022/09/06 13:15:53;;;;;;;5.23;4.60;;;22.10;99.90;;;;;;5050214;28;20898;-81